createdAt,value
2023-03-16T00:00:19.607Z,1.40
2023-03-16T00:02:46.829Z,1.47
2023-03-16T00:05:15.125Z,1.70
2023-03-16T00:07:42.633Z,1.27
2023-03-16T00:10:13.740Z,1.30
2023-03-16T00:12:43.928Z,1.37
2023-03-16T00:15:12.714Z,1.27
2023-03-16T00:17:39.956Z,1.63
2023-03-16T00:20:07.816Z,1.30
2023-03-16T00:22:35.252Z,1.70
2023-03-16T00:25:02.378Z,1.37
2023-03-16T00:27:29.668Z,1.70
2023-03-16T00:29:57.134Z,1.50
2023-03-16T00:32:32.048Z,1.67
2023-03-16T00:34:59.787Z,1.90
2023-03-16T00:37:28.113Z,1.90
2023-03-16T00:39:58.070Z,1.60
2023-03-16T00:42:28.248Z,2.03
2023-03-16T00:44:59.752Z,1.83
2023-03-16T00:47:30.723Z,1.63
2023-03-16T00:49:58.582Z,1.50
2023-03-16T00:52:27.720Z,1.73
2023-03-16T00:54:55.679Z,2.03
2023-03-16T00:57:25.353Z,1.90
2023-03-16T00:59:52.907Z,1.50
2023-03-16T01:02:23.763Z,1.67
2023-03-16T01:04:52.035Z,1.57
2023-03-16T01:07:19.320Z,2.10
2023-03-16T01:09:46.507Z,1.67
2023-03-16T01:12:16.441Z,1.90
2023-03-16T01:14:46.157Z,2.00
2023-03-16T01:17:14.596Z,1.67
2023-03-16T01:19:43.504Z,1.70
2023-03-16T01:22:11.949Z,1.70
2023-03-16T01:24:39.828Z,1.70
2023-03-16T01:27:08.127Z,1.80
2023-03-16T01:29:36.329Z,1.50
2023-03-16T01:32:05.013Z,1.80
2023-03-16T01:34:33.808Z,1.90
2023-03-16T01:37:01.490Z,1.60
2023-03-16T01:39:37.151Z,2.17
2023-03-16T01:42:05.708Z,1.43
2023-03-16T01:44:57.827Z,2.00
2023-03-16T01:47:30.603Z,1.70
2023-03-16T01:49:58.051Z,2.30
2023-03-16T01:52:35.937Z,2.03
2023-03-16T01:55:10.318Z,1.83
2023-03-16T01:57:42.751Z,1.93
2023-03-16T02:00:22.032Z,1.73
2023-03-16T02:03:25.688Z,2.13
2023-03-16T02:06:06.519Z,1.80
2023-03-16T02:08:37.828Z,1.60
2023-03-16T02:11:07.245Z,2.10
2023-03-16T02:13:50.456Z,1.83
2023-03-16T02:16:19.712Z,2.07
2023-03-16T02:18:50.015Z,1.77
2023-03-16T02:21:42.447Z,1.97
2023-03-16T02:24:09.602Z,1.87
2023-03-16T02:26:47.941Z,1.70
2023-03-16T02:29:54.358Z,1.90
2023-03-16T02:32:24.604Z,2.00
2023-03-16T02:34:52.240Z,1.90
2023-03-16T02:37:19.533Z,2.17
2023-03-16T02:39:46.697Z,1.77
2023-03-16T02:42:22.008Z,1.80
2023-03-16T02:44:57.696Z,1.83
2023-03-16T02:47:40.260Z,2.03
2023-03-16T02:50:09.851Z,1.80
2023-03-16T02:52:38.711Z,2.10
2023-03-16T02:55:07.481Z,2.20
2023-03-16T02:57:34.935Z,2.03
2023-03-16T03:00:13.077Z,2.17
2023-03-16T03:02:40.797Z,2.10
2023-03-16T03:05:08.254Z,2.10
2023-03-16T03:07:37.342Z,2.07
2023-03-16T03:10:07.094Z,2.10
2023-03-16T03:12:34.956Z,2.40
2023-03-16T03:15:06.055Z,2.10
2023-03-16T03:17:40.579Z,2.03
2023-03-16T03:20:13.966Z,2.00
2023-03-16T03:22:41.286Z,2.00
2023-03-16T03:25:09.800Z,2.20
2023-03-16T03:27:36.984Z,2.30
2023-03-16T03:30:08.857Z,1.60
2023-03-16T03:32:36.037Z,2.07
2023-03-16T03:35:03.320Z,2.50
2023-03-16T03:37:30.525Z,2.03
2023-03-16T03:39:57.747Z,2.10
2023-03-16T03:42:25.693Z,1.73
2023-03-16T03:44:52.985Z,2.53
2023-03-16T03:47:20.851Z,2.13
2023-03-16T03:49:48.094Z,1.90
2023-03-16T03:52:15.597Z,2.40
2023-03-16T03:54:42.728Z,2.33
2023-03-16T03:57:13.775Z,2.53
2023-03-16T03:59:43.983Z,2.07
2023-03-16T04:02:51.711Z,2.37
2023-03-16T04:05:34.966Z,2.53
2023-03-16T04:08:02.254Z,2.10
2023-03-16T04:10:31.328Z,2.57
2023-03-16T04:13:01.013Z,2.43
2023-03-16T04:15:33.095Z,2.07
2023-03-16T04:18:13.061Z,2.37
2023-03-16T04:20:41.476Z,2.20
2023-03-16T04:23:09.345Z,2.43
2023-03-16T04:25:38.734Z,2.13
2023-03-16T04:28:06.913Z,2.30
2023-03-16T04:30:36.574Z,2.40
2023-03-16T04:33:16.442Z,2.33
2023-03-16T04:35:46.246Z,2.37
2023-03-16T04:38:15.449Z,2.60
2023-03-16T04:40:52.389Z,2.50
2023-03-16T04:43:23.141Z,2.37
2023-03-16T04:45:54.104Z,2.50
2023-03-16T04:48:22.155Z,2.60
2023-03-16T04:50:50.549Z,2.07
2023-03-16T04:53:17.795Z,2.17
2023-03-16T04:55:46.710Z,2.50
2023-03-16T04:58:14.390Z,2.20
2023-03-16T05:00:41.740Z,2.47
2023-03-16T05:03:19.728Z,2.40
2023-03-16T05:05:47.739Z,2.40
2023-03-16T05:08:16.015Z,2.10
2023-03-16T05:10:48.085Z,2.37
2023-03-16T05:13:15.676Z,2.43
2023-03-16T05:15:44.530Z,2.40
2023-03-16T05:18:23.239Z,2.90
2023-03-16T05:20:55.963Z,2.63
2023-03-16T05:23:26.830Z,2.70
2023-03-16T05:25:59.949Z,2.60
2023-03-16T05:28:31.215Z,2.33
2023-03-16T05:31:03.968Z,2.37
2023-03-16T05:33:38.576Z,2.60
2023-03-16T05:36:09.991Z,2.50
2023-03-16T05:38:40.368Z,2.90
2023-03-16T05:41:10.533Z,2.60
2023-03-16T05:43:48.910Z,2.50
2023-03-16T05:46:18.969Z,2.60
2023-03-16T05:48:49.027Z,2.33
2023-03-16T05:51:18.579Z,2.80
2023-03-16T05:53:46.822Z,2.57
2023-03-16T05:56:27.932Z,2.47
2023-03-16T05:58:56.867Z,2.90
2023-03-16T06:01:25.068Z,2.37
2023-03-16T06:03:53.103Z,2.30
2023-03-16T06:06:23.950Z,2.90
2023-03-16T06:08:58.083Z,2.60
2023-03-16T06:11:26.934Z,2.73
2023-03-16T06:13:54.116Z,2.87
2023-03-16T06:16:21.453Z,2.50
2023-03-16T06:18:48.506Z,3.27
2023-03-16T06:21:15.660Z,2.70
2023-03-16T06:23:42.914Z,2.70
2023-03-16T06:26:10.590Z,2.60
2023-03-16T06:28:41.632Z,2.63
2023-03-16T06:31:08.859Z,2.40
2023-03-16T06:33:36.792Z,2.77
2023-03-16T06:36:04.237Z,2.07
2023-03-16T06:38:38.671Z,2.67
2023-03-16T06:41:14.217Z,2.97
2023-03-16T06:43:42.600Z,2.67
2023-03-16T06:46:10.483Z,2.43
2023-03-16T06:48:38.094Z,2.93
2023-03-16T06:51:07.706Z,2.97
2023-03-16T06:53:36.050Z,2.97
2023-03-16T06:56:03.279Z,3.47
2023-03-16T06:58:33.597Z,3.07
2023-03-16T07:01:03.938Z,2.93
2023-03-16T07:03:31.536Z,3.33
2023-03-16T07:06:06.038Z,3.00
2023-03-16T07:08:33.194Z,3.17
2023-03-16T07:11:00.449Z,3.27
2023-03-16T07:13:27.800Z,3.83
2023-03-16T07:15:55.172Z,3.17
2023-03-16T07:18:26.170Z,3.73
2023-03-16T07:20:56.939Z,3.80
2023-03-16T07:23:26.475Z,4.07
2023-03-16T07:25:58.963Z,3.90
2023-03-16T07:28:27.011Z,3.77
2023-03-16T07:31:03.434Z,3.70
2023-03-16T07:33:36.827Z,3.30
2023-03-16T07:36:07.183Z,3.73
2023-03-16T07:38:40.102Z,3.53
2023-03-16T07:41:07.709Z,3.50
2023-03-16T07:43:36.040Z,3.87
2023-03-16T07:46:03.314Z,4.13
2023-03-16T07:48:30.435Z,4.27
2023-03-16T07:51:01.892Z,4.53
2023-03-16T07:53:30.341Z,4.50
2023-03-16T07:56:17.641Z,4.43
2023-03-16T07:58:48.149Z,4.53
2023-03-16T08:01:16.817Z,3.60
2023-03-16T08:03:44.750Z,3.90
2023-03-16T08:06:12.296Z,4.33
2023-03-16T08:08:39.566Z,4.00
2023-03-16T08:11:10.232Z,3.67
2023-03-16T08:13:47.038Z,4.20
2023-03-16T08:16:15.300Z,3.93
2023-03-16T08:18:44.823Z,3.47
2023-03-16T08:21:12.326Z,3.80
2023-03-16T08:23:39.508Z,3.80
2023-03-16T08:26:09.086Z,4.30
2023-03-16T08:28:38.072Z,3.80
2023-03-16T08:31:09.665Z,4.13
2023-03-16T08:33:42.698Z,3.90
2023-03-16T08:36:13.580Z,4.37
2023-03-16T08:39:03.788Z,4.27
2023-03-16T08:41:34.831Z,4.13
2023-03-16T08:44:07.959Z,4.50
2023-03-16T08:46:35.733Z,4.93
2023-03-16T08:49:03.590Z,4.60
2023-03-16T08:51:32.660Z,5.37
2023-03-16T08:53:59.882Z,4.77
2023-03-16T08:56:27.666Z,5.13
2023-03-16T08:58:54.758Z,4.83
2023-03-16T09:01:22.456Z,4.63
2023-03-16T09:03:51.429Z,5.27
2023-03-16T09:06:18.867Z,4.97
2023-03-16T09:08:47.759Z,4.40
2023-03-16T09:11:17.808Z,5.20
2023-03-16T09:13:45.098Z,3.83
2023-03-16T09:16:15.399Z,4.53
2023-03-16T09:18:45.489Z,3.67
2023-03-16T09:21:15.688Z,3.87
2023-03-16T09:23:44.120Z,4.03
2023-03-16T09:26:12.664Z,4.40
2023-03-16T09:28:42.297Z,4.50
2023-03-16T09:31:15.586Z,4.57
2023-03-16T09:33:43.015Z,4.13
2023-03-16T09:36:13.753Z,3.77
2023-03-16T09:38:42.602Z,3.40
2023-03-16T09:41:22.573Z,3.80
2023-03-16T09:44:42.640Z,3.83
2023-03-16T09:47:12.318Z,3.63
2023-03-16T09:49:50.158Z,4.33
2023-03-16T09:52:50.724Z,3.97
2023-03-16T09:55:35.490Z,5.13
2023-03-16T09:58:06.043Z,3.53
2023-03-16T10:00:45.366Z,3.87
2023-03-16T10:03:51.826Z,3.50
2023-03-16T10:06:19.569Z,3.40
2023-03-16T10:08:56.046Z,3.43
2023-03-16T10:11:54.317Z,3.40
2023-03-16T10:14:45.596Z,3.13
2023-03-16T10:17:31.028Z,3.40
2023-03-16T10:20:02.849Z,2.63
2023-03-16T10:22:35.816Z,3.37
2023-03-16T10:25:42.110Z,2.80
2023-03-16T10:28:15.616Z,2.90
2023-03-16T10:30:43.969Z,2.90
2023-03-16T10:33:28.739Z,3.00
2023-03-16T10:36:24.348Z,2.87
2023-03-16T10:39:00.310Z,2.83
2023-03-16T10:41:37.289Z,2.90
2023-03-16T10:44:17.317Z,2.77
2023-03-16T10:46:50.717Z,2.73
2023-03-16T10:49:27.181Z,2.80
2023-03-16T10:51:55.831Z,2.60
2023-03-16T10:54:49.922Z,2.50
2023-03-16T10:57:37.550Z,2.40
2023-03-16T11:00:36.272Z,2.90
2023-03-16T11:03:22.983Z,2.57
2023-03-16T11:06:02.325Z,2.70
2023-03-16T11:08:35.618Z,2.63
2023-03-16T11:11:21.483Z,2.60
2023-03-16T11:13:49.196Z,2.87
2023-03-16T11:16:51.301Z,2.37
2023-03-16T11:19:49.632Z,2.70
2023-03-16T11:22:27.101Z,2.53
2023-03-16T11:25:35.730Z,2.67
2023-03-16T11:28:28.286Z,2.50
2023-03-16T11:31:46.402Z,2.80
2023-03-16T11:34:17.727Z,2.90
2023-03-16T11:36:53.633Z,2.90
2023-03-16T11:39:33.746Z,2.60
2023-03-16T11:42:18.026Z,2.90
2023-03-16T11:45:10.182Z,2.37
2023-03-16T11:48:04.179Z,2.30
2023-03-16T11:51:23.183Z,2.50
2023-03-16T11:54:00.818Z,2.20
2023-03-16T11:56:39.366Z,2.20
2023-03-16T11:59:20.621Z,2.00
2023-03-16T12:02:24.879Z,2.07
2023-03-16T12:05:04.133Z,1.70
2023-03-16T12:08:26.542Z,1.80
2023-03-16T12:11:32.247Z,2.07
2023-03-16T12:14:41.550Z,1.70
2023-03-16T12:17:27.763Z,1.90
2023-03-16T12:22:56.628Z,1.93
2023-03-16T12:25:28.237Z,1.73
2023-03-16T12:27:59.237Z,1.83
2023-03-16T12:30:58.441Z,2.10
2023-03-16T12:34:02.831Z,2.10
2023-03-16T12:37:01.018Z,2.10
2023-03-16T12:40:16.484Z,1.80
2023-03-16T12:43:24.285Z,2.20
2023-03-16T12:46:08.412Z,2.07
2023-03-16T12:48:50.094Z,2.10
2023-03-16T12:51:17.499Z,2.27
2023-03-16T12:53:53.385Z,2.30
2023-03-16T12:56:32.179Z,2.27
2023-03-16T12:59:01.757Z,2.30
2023-03-16T13:01:37.628Z,2.10
2023-03-16T13:04:35.484Z,2.27
2023-03-16T13:07:24.665Z,2.50
2023-03-16T13:10:08.977Z,2.27
2023-03-16T13:12:38.421Z,2.90
2023-03-16T13:15:27.123Z,2.30
2023-03-16T13:18:25.137Z,2.57
2023-03-16T13:21:13.227Z,2.27
2023-03-16T13:24:20.899Z,2.17
2023-03-16T13:26:50.059Z,2.40
2023-03-16T13:29:25.883Z,2.50
2023-03-16T13:31:54.985Z,2.40
2023-03-16T13:34:31.835Z,2.20
2023-03-16T13:37:01.520Z,2.77
2023-03-16T13:39:30.685Z,2.50
2023-03-16T13:42:07.470Z,2.50
2023-03-16T13:44:39.231Z,2.77
2023-03-16T13:47:07.571Z,2.30
2023-03-16T13:49:43.264Z,2.10
2023-03-16T13:52:28.415Z,2.30
2023-03-16T13:54:57.600Z,2.43
2023-03-16T13:57:30.509Z,2.40
2023-03-16T14:00:24.902Z,2.07
2023-03-16T14:02:55.749Z,2.57
2023-03-16T14:05:35.265Z,2.33
2023-03-16T14:08:05.058Z,2.23
2023-03-16T14:10:37.843Z,2.70
2023-03-16T14:13:34.211Z,2.60
2023-03-16T14:16:17.749Z,2.20
2023-03-16T14:18:48.744Z,1.93
2023-03-16T14:21:43.940Z,2.50
2023-03-16T14:24:29.595Z,2.40
2023-03-16T14:26:57.988Z,2.53
2023-03-16T14:29:30.527Z,2.23
2023-03-16T14:31:59.148Z,2.20
2023-03-16T14:34:38.693Z,2.63
2023-03-16T14:37:11.545Z,2.40
2023-03-16T14:39:40.685Z,2.47
2023-03-16T14:42:15.644Z,2.17
2023-03-16T14:44:43.873Z,3.23
2023-03-16T14:47:23.014Z,2.43
2023-03-16T14:49:51.132Z,2.37
2023-03-16T14:52:31.797Z,2.40
2023-03-16T14:55:00.778Z,2.40
2023-03-16T14:57:29.696Z,2.57
2023-03-16T14:59:56.818Z,2.60
2023-03-16T15:02:28.916Z,2.17
2023-03-16T15:04:57.199Z,2.33
2023-03-16T15:07:38.079Z,2.30
2023-03-16T15:10:22.379Z,2.63
2023-03-16T15:13:04.381Z,2.60
2023-03-16T15:15:31.833Z,2.73
2023-03-16T15:18:00.051Z,2.03
2023-03-16T15:20:35.280Z,2.53
2023-03-16T15:23:05.096Z,2.50
2023-03-16T15:25:38.462Z,2.90
2023-03-16T15:28:20.344Z,2.40
2023-03-16T15:30:53.562Z,2.20
2023-03-16T15:33:21.057Z,2.77
2023-03-16T15:35:50.124Z,2.57
2023-03-16T15:38:29.199Z,2.73
2023-03-16T15:40:56.515Z,2.70
2023-03-16T15:43:27.227Z,2.63
2023-03-16T15:45:57.507Z,3.10
2023-03-16T15:48:25.515Z,2.90
2023-03-16T15:50:58.447Z,2.50
2023-03-16T15:53:42.541Z,3.00
2023-03-16T15:56:13.723Z,2.80
2023-03-16T15:58:43.166Z,2.77
2023-03-16T16:01:25.642Z,3.13
2023-03-16T16:03:54.189Z,2.57
2023-03-16T16:06:22.286Z,2.33
2023-03-16T16:08:49.678Z,2.70
2023-03-16T16:11:35.943Z,2.60
2023-03-16T16:14:04.011Z,2.60
2023-03-16T16:16:33.823Z,2.43
2023-03-16T16:19:01.027Z,2.63
2023-03-16T16:21:32.733Z,2.67
2023-03-16T16:24:01.452Z,1.90
2023-03-16T16:26:54.841Z,1.87
2023-03-16T16:29:25.824Z,1.63
2023-03-16T16:31:53.214Z,2.20
2023-03-16T16:34:24.853Z,2.07
2023-03-16T16:36:56.251Z,1.80
2023-03-16T16:39:23.964Z,2.10
2023-03-16T16:41:54.674Z,2.13
2023-03-16T16:44:27.433Z,3.13
2023-03-16T16:46:55.280Z,2.17
2023-03-16T16:49:28.465Z,2.13
2023-03-16T16:51:56.622Z,2.30
2023-03-16T16:54:26.212Z,2.30
2023-03-16T16:56:55.281Z,2.93
2023-03-16T16:59:34.157Z,2.00
2023-03-16T17:02:03.290Z,2.10
2023-03-16T17:04:30.821Z,2.30
2023-03-16T17:07:02.197Z,2.40
2023-03-16T17:09:30.469Z,1.97
2023-03-16T17:12:02.199Z,2.13
2023-03-16T17:14:31.192Z,1.73
2023-03-16T17:17:04.649Z,1.93
2023-03-16T17:19:31.801Z,1.93
2023-03-16T17:21:58.894Z,1.80
2023-03-16T17:24:26.105Z,1.90
2023-03-16T17:26:56.208Z,1.93
2023-03-16T17:29:32.062Z,1.90
2023-03-16T17:32:08.334Z,1.90
2023-03-16T17:34:35.818Z,1.77
2023-03-16T17:37:02.907Z,2.37
2023-03-16T17:39:32.678Z,2.07
2023-03-16T17:42:06.299Z,1.83
2023-03-16T17:44:36.338Z,2.30
2023-03-16T17:47:03.937Z,2.37
2023-03-16T17:49:32.174Z,1.87
2023-03-16T17:51:59.273Z,1.77
2023-03-16T17:54:26.390Z,1.87
2023-03-16T17:56:54.263Z,1.73
2023-03-16T17:59:23.026Z,2.07
2023-03-16T18:01:50.813Z,1.80
2023-03-16T18:04:21.266Z,2.20
2023-03-16T18:06:49.194Z,1.90
2023-03-16T18:09:18.133Z,2.20
2023-03-16T18:11:47.764Z,2.10
2023-03-16T18:14:35.314Z,2.10
2023-03-16T18:17:32.555Z,1.90
2023-03-16T18:19:59.872Z,2.37
2023-03-16T18:22:27.994Z,6.93
2023-03-16T18:24:55.924Z,6.67
2023-03-16T18:27:23.107Z,3.70
2023-03-16T18:29:50.292Z,2.27
2023-03-16T18:32:35.541Z,1.80
2023-03-16T18:35:04.052Z,1.83
2023-03-16T18:37:31.620Z,1.90
2023-03-16T18:39:58.784Z,1.80
2023-03-16T18:42:27.822Z,2.10
2023-03-16T18:44:54.882Z,2.03
2023-03-16T18:47:31.561Z,1.70
2023-03-16T18:49:59.494Z,2.00
2023-03-16T18:52:29.265Z,1.93
2023-03-16T18:54:57.838Z,1.83
2023-03-16T18:57:28.746Z,2.03
2023-03-16T18:59:56.387Z,2.13
2023-03-16T19:02:39.034Z,2.03
2023-03-16T19:05:35.747Z,1.93
2023-03-16T19:08:05.093Z,2.07
2023-03-16T19:10:38.152Z,1.87
2023-03-16T19:13:15.120Z,2.07
2023-03-16T19:15:42.489Z,2.00
2023-03-16T19:18:09.633Z,2.30
2023-03-16T19:20:37.541Z,2.10
2023-03-16T19:23:25.089Z,2.37
2023-03-16T19:25:54.511Z,2.30
2023-03-16T19:28:39.426Z,2.13
2023-03-16T19:31:33.681Z,2.30
2023-03-16T19:34:00.826Z,2.27
2023-03-16T19:36:31.947Z,1.90
2023-03-16T19:38:59.857Z,2.27
2023-03-16T19:41:33.845Z,2.00
2023-03-16T19:44:12.846Z,2.17
2023-03-16T19:46:40.665Z,2.43
2023-03-16T19:49:17.574Z,2.07
2023-03-16T19:51:44.729Z,2.40
2023-03-16T19:54:23.372Z,2.27
2023-03-16T19:56:54.946Z,3.07
2023-03-16T19:59:24.460Z,2.47
2023-03-16T20:01:51.619Z,2.10
2023-03-16T20:04:24.012Z,2.50
2023-03-16T20:06:51.475Z,2.13
2023-03-16T20:09:18.880Z,2.33
2023-03-16T20:11:47.680Z,2.90
2023-03-16T20:14:35.032Z,3.13
2023-03-16T20:17:02.180Z,2.50
2023-03-16T20:19:29.734Z,2.67
2023-03-16T20:21:56.964Z,2.60
2023-03-16T20:24:24.819Z,2.60
2023-03-16T20:26:54.118Z,2.90
2023-03-16T20:29:32.650Z,3.03
2023-03-16T20:32:01.323Z,2.53
2023-03-16T20:34:31.424Z,2.70
2023-03-16T20:36:59.066Z,2.50
2023-03-16T20:39:26.669Z,2.60
2023-03-16T20:41:53.862Z,2.47
2023-03-16T20:44:25.359Z,2.80
2023-03-16T20:46:52.597Z,2.57
2023-03-16T20:49:31.287Z,2.97
2023-03-16T20:51:59.406Z,3.23
2023-03-16T20:54:27.251Z,3.20
2023-03-16T20:56:55.225Z,2.70
2023-03-16T20:59:25.231Z,2.50
2023-03-16T21:01:55.685Z,2.90
2023-03-16T21:04:27.417Z,2.60
2023-03-16T21:06:56.215Z,2.60
2023-03-16T21:09:23.346Z,3.10
2023-03-16T21:11:50.551Z,3.03
2023-03-16T21:14:22.263Z,3.40
2023-03-16T21:16:51.130Z,2.33
2023-03-16T21:19:21.781Z,2.80
2023-03-16T21:21:49.448Z,2.77
2023-03-16T21:24:17.714Z,2.47
2023-03-16T21:26:47.589Z,3.07
2023-03-16T21:29:21.343Z,3.00
2023-03-16T21:31:48.867Z,3.03
2023-03-16T21:34:24.447Z,3.20
2023-03-16T21:36:51.724Z,3.03
2023-03-16T21:39:22.522Z,2.67
2023-03-16T21:41:50.881Z,3.20
2023-03-16T21:44:18.576Z,3.20
2023-03-16T21:46:47.505Z,3.10
2023-03-16T21:49:15.995Z,3.00
2023-03-16T21:51:43.745Z,2.70
2023-03-16T21:54:14.957Z,3.37
2023-03-16T21:56:43.102Z,3.03
2023-03-16T21:59:10.872Z,3.17
2023-03-16T22:01:50.649Z,2.77
2023-03-16T22:04:25.869Z,2.97
2023-03-16T22:06:52.982Z,3.20
2023-03-16T22:09:22.638Z,3.30
2023-03-16T22:11:49.972Z,2.53
2023-03-16T22:14:17.151Z,3.10
2023-03-16T22:16:44.295Z,3.47
2023-03-16T22:19:14.697Z,3.43
2023-03-16T22:21:43.813Z,3.00
2023-03-16T22:24:23.814Z,3.10
2023-03-16T22:26:52.167Z,3.10
2023-03-16T22:29:33.801Z,3.17
2023-03-16T22:32:12.479Z,2.90
2023-03-16T22:34:56.196Z,2.80
2023-03-16T22:37:27.601Z,2.93
2023-03-16T22:39:56.636Z,3.13
2023-03-16T22:42:38.623Z,3.50
2023-03-16T22:45:33.688Z,3.50
2023-03-16T22:48:05.312Z,3.27
2023-03-16T22:50:35.455Z,3.30
2023-03-16T22:53:06.932Z,4.20
2023-03-16T22:55:37.883Z,3.70
2023-03-16T22:58:19.336Z,3.10
2023-03-16T23:00:46.577Z,3.53
2023-03-16T23:03:19.853Z,4.10
2023-03-16T23:05:47.721Z,3.60
2023-03-16T23:08:23.573Z,4.13
2023-03-16T23:10:52.014Z,4.50
2023-03-16T23:13:24.222Z,4.10
2023-03-16T23:15:53.536Z,3.77
2023-03-16T23:18:26.139Z,3.80
2023-03-16T23:20:53.402Z,4.53
2023-03-16T23:23:20.532Z,4.23
2023-03-16T23:25:48.560Z,4.43
2023-03-16T23:28:23.145Z,4.57
2023-03-16T23:30:50.734Z,4.70
2023-03-16T23:33:17.884Z,4.63
2023-03-16T23:35:46.846Z,4.27
2023-03-16T23:38:14.211Z,4.27
2023-03-16T23:40:41.604Z,3.30
2023-03-16T23:43:09.282Z,3.93
2023-03-16T23:45:45.750Z,3.57
2023-03-16T23:48:19.282Z,4.57
2023-03-16T23:50:49.639Z,4.30
2023-03-16T23:53:17.837Z,4.17
2023-03-16T23:55:45.892Z,3.60
2023-03-16T23:58:14.082Z,4.80
